1XA4 weather

Mikeska Field
Brookshire, Texas, United States

Public forecast

Using degrees Fahrenheit for public forecast. Weather courtesy of forecast.io.

Closest aviation weather report (METAR) to Mikeska Field

Closest report is Houston Executive Airport, 6.8 nm (12.7 km) SE. Retrieved 2019/11/18 18:35 UTC (0 seconds ago):

KTME 181835Z AUTO 30005KT 10SM CLR 22/08 A2997 RMK AO2

Closest aviation forecast (TAF) to Mikeska Field

Closest forecast is Sugar Land Regional Airport, 23.6 nm (43.7 km) SE. Retrieved 2019/11/18 18:22 UTC (12 minutes ago):

TAF KSGR 181720Z 1818/1918 VRB04KT P6SM SKC FM190800 00000KT 5SM BR SKC TEMPO 1912/1914 1SM BR OVC003 FM191500 VRB03KT P6SM SKC